^^
Station Historical Data
Daily Summary for February 12, 2017 Units:  Metric    English   Both
« Previous Day
Next Day »
Daily Weekly Monthly Yearly Custom
  High: Low: Average:
Temperature: 34.6 °C 17.2 °C 24.6 °C
Dew Point: 13.2 °C -1 °C 9.4 °C
Humidity: 75% 13% 45%
Wind Speed: 24.1km/h 0km/h 11.1km/h
Wind Gust: 29km/h - -
Wind- - SSW
Pressure: 1008.4 hPa 1004.3 hPa -
Precipitation: 0 mm    
Historical Graphs
 
 
Tabular Data for February 12, 2017
Time Temperature Dew Point Pressure Wind Wind Speed Wind Gust Humidity Rainfall Rate (Hourly) solar Conditions
00:01 23.1 °C 9.1 °C 1007.7 hPa South 19.5 km/h 20.9 km/h 41% 0 mm 0.0 W/m2
00:06 22.9 °C 8.2 °C 1007.7 hPa SSW 16.3 km/h 17.7 km/h 39% 0 mm 0.0 W/m2
00:16 22.7 °C 8 °C 1007.7 hPa SSW 9.7 km/h 14.5 km/h 39% 0 mm 0.0 W/m2
00:26 22.6 °C 8.3 °C 1007.7 hPa SSW 16.3 km/h 16.3 km/h 40% 0 mm 0.0 W/m2
00:46 22.2 °C 8.7 °C 1007.3 hPa SSW 13 km/h 19.3 km/h 42% 0 mm 0.0 W/m2
00:51 22 °C 9.5 °C 1007.3 hPa SSW 11.1 km/h 16.1 km/h 45% 0 mm 0.0 W/m2
01:01 21.9 °C 10.1 °C 1007.3 hPa SSW 14.3 km/h 16.1 km/h 47% 0 mm 0.0 W/m2
01:21 21.7 °C 11.1 °C 1007.3 hPa SSW 13 km/h 13 km/h 51% 0 mm 0.0 W/m2
01:31 21.5 °C 11.5 °C 1007.3 hPa SSW 13 km/h 14.5 km/h 53% 0 mm 0.0 W/m2
01:52 21.1 °C 11.7 °C 1007 hPa SSW 11.1 km/h 16.1 km/h 55% 0 mm 0.0 W/m2
02:07 20.8 °C 12 °C 1006.7 hPa SSW 9.7 km/h 12.9 km/h 57% 0 mm 0.0 W/m2
02:12 20.8 °C 12 °C 1006.7 hPa SSW 9.7 km/h 11.3 km/h 57% 0 mm 0.0 W/m2
02:17 20.7 °C 11.9 °C 1007 hPa SSW 14.3 km/h 17.7 km/h 57% 0 mm 0.0 W/m2
02:20 20.7 °C 12.1 °C 1006.7 hPa SSW 11.1 km/h 14.5 km/h 58% 0 mm 0.0 W/m2
02:32 20.6 °C 12 °C 1006.7 hPa SSW 11.1 km/h 14.5 km/h 58% 0 mm 0.0 W/m2
02:37 20.5 °C 12 °C 1006.7 hPa SSW 16.3 km/h 16.3 km/h 58% 0 mm 0.0 W/m2
03:43 19.2 °C 12.2 °C 1006.3 hPa SW 13 km/h 14.5 km/h 64% 0 mm 0.0 W/m2
03:48 19.1 °C 12.4 °C 1006.3 hPa SW 9.7 km/h 14.5 km/h 65% 0 mm 0.0 W/m2
03:52 19.1 °C 12.4 °C 1006.3 hPa SW 9.7 km/h 9.7 km/h 65% 0 mm 0.0 W/m2
04:13 18.8 °C 12.5 °C 1006 hPa SW 11.1 km/h 12.9 km/h 67% 0 mm 0.0 W/m2
04:17 18.7 °C 12.4 °C 1006 hPa SW 11.1 km/h 12.9 km/h 67% 0 mm 0.0 W/m2
04:22 18.6 °C 12.6 °C 1006 hPa SW 9.7 km/h 14.5 km/h 68% 0 mm 0.0 W/m2
05:24 18 °C 12.4 °C 1006.3 hPa SW 6.4 km/h 9.7 km/h 70% 0 mm 0.0 W/m2
05:40 17.7 °C 12.6 °C 1006.3 hPa SW 11.1 km/h 14.5 km/h 72% 0 mm 0.0 W/m2
05:45 17.7 °C 12.8 °C 1006.3 hPa SW 9.7 km/h 12.9 km/h 73% 0 mm 0.0 W/m2
05:50 17.6 °C 12.7 °C 1006.3 hPa SW 7.9 km/h 9.7 km/h 73% 0 mm 0.0 W/m2
05:55 17.5 °C 12.8 °C 1006.3 hPa SW 13 km/h 13 km/h 74% 0 mm 0.0 W/m2
06:01 17.4 °C 12.7 °C 1006.3 hPa SW 7.9 km/h 14.5 km/h 74% 0 mm 0.0 W/m2
06:06 17.4 °C 12.7 °C 1006.7 hPa SW 6.4 km/h 16.1 km/h 74% 0 mm 0.0 W/m2
06:16 17.4 °C 12.7 °C 1006.7 hPa SW 11.1 km/h 16.1 km/h 74% 0 mm 0.0 W/m2
06:22 17.4 °C 12.7 °C 1006.7 hPa SW 9.7 km/h 14.5 km/h 74% 0 mm 0.0 W/m2
06:31 17.3 °C 12.8 °C 1007 hPa SW 9.7 km/h 9.7 km/h 75% 0 mm 5.0 W/m2
06:36 17.3 °C 12.8 °C 1007 hPa SW 9.7 km/h 9.7 km/h 75% 0 mm 7.0 W/m2
06:42 17.2 °C 12.7 °C 1007 hPa SW 9.7 km/h 11.3 km/h 75% 0 mm 9.0 W/m2
06:48 17.2 °C 12.7 °C 1007 hPa SW 4.7 km/h 9.7 km/h 75% 0 mm 14.0 W/m2
06:56 17.4 °C 12.9 °C 1007.3 hPa SW 6.4 km/h 6.4 km/h 75% 0 mm 28.0 W/m2
07:06 17.6 °C 13.1 °C 1007.7 hPa SW 4.7 km/h 8 km/h 75% 0 mm 54.0 W/m2
07:12 17.8 °C 13.1 °C 1007.3 hPa SW 6.4 km/h 8 km/h 74% 0 mm 72.0 W/m2
07:22 18 °C 13.1 °C 1007.7 hPa SW 6.4 km/h 11.3 km/h 73% 0 mm 113.0 W/m2
07:42 18.6 °C 13.2 °C 1007.7 hPa SW 11.1 km/h 11.3 km/h 71% 0 mm 206.0 W/m2
07:52 18.9 °C 13.1 °C 1007.7 hPa SW 13 km/h 14.5 km/h 69% 0 mm 250.0 W/m2
07:58 19.1 °C 13.1 °C 1007.7 hPa SW 11.1 km/h 12.9 km/h 68% 0 mm 269.0 W/m2
08:04 19.3 °C 13.2 °C 1007.7 hPa SW 11.1 km/h 12.9 km/h 68% 0 mm 285.0 W/m2
08:16 19.7 °C 13.2 °C 1007.7 hPa SW 9.7 km/h 12.9 km/h 66% 0 mm 323.0 W/m2
08:20 20 °C 13 °C 1007.7 hPa SW 13 km/h 16.1 km/h 64% 0 mm 362.0 W/m2
08:37 20.3 °C 13 °C 1008 hPa SW 14.3 km/h 16.1 km/h 63% 0 mm 399.0 W/m2
08:45 20.9 °C 13.1 °C 1008 hPa SW 11.1 km/h 14.5 km/h 61% 0 mm 454.0 W/m2
09:01 21.3 °C 13 °C 1008 hPa SW 13 km/h 16.1 km/h 59% 0 mm 490.0 W/m2
09:06 21.7 °C 12.8 °C 1008.4 hPa SW 14.3 km/h 14.5 km/h 57% 0 mm 522.0 W/m2
09:27 22.1 °C 12.4 °C 1008.4 hPa SW 14.3 km/h 17.7 km/h 54% 0 mm 575.0 W/m2
09:36 22.7 °C 12.6 °C 1008.4 hPa SW 9.7 km/h 14.5 km/h 53% 0 mm 610.0 W/m2
09:46 23.2 °C 12.5 °C 1008.4 hPa SW 16.3 km/h 19.3 km/h 51% 0 mm 642.0 W/m2
09:55 23.9 °C 12.2 °C 1008.4 hPa SW 13 km/h 14.5 km/h 48% 0 mm 673.0 W/m2
10:04 24.4 °C 12 °C 1008.4 hPa SW 13 km/h 14.5 km/h 46% 0 mm 701.0 W/m2
12:24 29.3 °C 9.9 °C 1007.7 hPa SW 9.7 km/h 19.3 km/h 30% 0 mm 962.0 W/m2
12:39 30.2 °C 8 °C 1007.7 hPa SW 11.1 km/h 12.9 km/h 25% 0 mm 976.0 W/m2
12:48 31.1 °C 6.9 °C 1007.7 hPa SW 14.3 km/h 14.5 km/h 22% 0 mm 981.0 W/m2
13:10 31.3 °C 5.7 °C 1007.3 hPa SW 4.7 km/h 16.1 km/h 20% 0 mm 981.0 W/m2
13:18 31.6 °C 2.7 °C 1007.3 hPa SW 7.9 km/h 14.5 km/h 16% 0 mm 979.0 W/m2
13:34 32 °C 2.1 °C 1007 hPa SW 9.7 km/h 12.9 km/h 15% 0 mm 972.0 W/m2
13:56 32.3 °C 2.4 °C 1007 hPa Calm   8 km/h 15% 0 mm 962.0 W/m2
14:11 33 °C 3.8 °C 1006.7 hPa SSW 11.1 km/h 17.7 km/h 16% 0 mm 946.0 W/m2
14:20 33.3 °C 3.2 °C 1006.7 hPa SSW 9.7 km/h 14.5 km/h 15% 0 mm 925.0 W/m2
14:30 33.5 °C 3.3 °C 1006.3 hPa SSW 11.1 km/h 14.5 km/h 15% 0 mm 911.0 W/m2
14:46 33.3 °C 3.2 °C 1006.3 hPa Calm   11.3 km/h 15% 0 mm 889.0 W/m2
14:56 33.4 °C 4.2 °C 1006 hPa South 9.7 km/h 12.9 km/h 16% 0 mm 874.0 W/m2
15:05 33.7 °C 3.5 °C 1006 hPa South 11.1 km/h 16.1 km/h 15% 0 mm 851.0 W/m2
15:17 33.7 °C 3.5 °C 1005.6 hPa South 7.9 km/h 16.1 km/h 15% 0 mm 831.0 W/m2
15:31 33.9 °C 2.7 °C 1005.6 hPa South 14.3 km/h 14.5 km/h 14% 0 mm 793.0 W/m2
15:36 33.9 °C 2.7 °C 1005.3 hPa Calm     14% 0 mm 768.0 W/m2
15:57 34.4 °C 3.1 °C 1005 hPa Calm     14% 0 mm 724.0 W/m2
16:08 34.6 °C 2.2 °C 1005 hPa South 6.4 km/h 12.9 km/h 13% 0 mm 700.0 W/m2
16:22 34.3 °C 3 °C 1004.6 hPa South 11.1 km/h 17.7 km/h 14% 0 mm 652.0 W/m2
16:33 34.3 °C 3 °C 1004.6 hPa South 3.2 km/h 12.9 km/h 14% 0 mm 617.0 W/m2
16:48 34.2 °C 2.9 °C 1004.6 hPa South 13 km/h 13 km/h 14% 0 mm 570.0 W/m2
16:56 34.4 °C 3.1 °C 1004.3 hPa South 9.7 km/h 14.5 km/h 14% 0 mm 531.0 W/m2
17:04 34.3 °C 3 °C 1004.3 hPa South 19.5 km/h 29 km/h 14% 0 mm 499.0 W/m2
20:28 30.6 °C -1 °C 1005.6 hPa South 16.3 km/h 22.5 km/h 13% 0 mm 0.0 W/m2
20:39 30.3 °C -0.2 °C 1006 hPa South 17.7 km/h 20.9 km/h 14% 0 mm 0.0 W/m2
20:54 30 °C 4.6 °C 1006.3 hPa South 19.5 km/h 29 km/h 20% 0 mm 0.0 W/m2
21:06 29.5 °C 9.1 °C 1006.3 hPa SSW 24.1 km/h 25.7 km/h 28% 0 mm 0.0 W/m2
21:18 29.1 °C 9.8 °C 1006.7 hPa South 14.3 km/h 19.3 km/h 30% 0 mm 0.0 W/m2
21:27 28.8 °C 10 °C 1006.7 hPa South 16.3 km/h 16.3 km/h 31% 0 mm 0.0 W/m2
21:33 28.6 °C 10.3 °C 1006.7 hPa South 13 km/h 19.3 km/h 32% 0 mm 0.0 W/m2
21:38 28.4 °C 10.1 °C 1006.7 hPa South 17.7 km/h 17.7 km/h 32% 0 mm 0.0 W/m2
21:53 28.2 °C 10.4 °C 1007 hPa South 14.3 km/h 20.9 km/h 33% 0 mm 0.0 W/m2
21:58 28.1 °C 10.3 °C 1007 hPa South 13 km/h 19.3 km/h 33% 0 mm 0.0 W/m2
22:03 27.9 °C 10.1 °C 1007 hPa South 14.3 km/h 16.1 km/h 33% 0 mm 0.0 W/m2
23:21 26.1 °C 10.3 °C 1007.3 hPa SSW 6.4 km/h 14.5 km/h 37% 0 mm 0.0 W/m2
23:26 25.9 °C 10.1 °C 1007.3 hPa SSW 13 km/h 14.5 km/h 37% 0 mm 0.0 W/m2
23:31 25.8 °C 10 °C 1007.3 hPa SSW 11.1 km/h 16.1 km/h 37% 0 mm 0.0 W/m2
23:34 25.8 °C 10 °C 1007.3 hPa SSW 16.3 km/h 19.3 km/h 37% 0 mm 0.0 W/m2
23:41 25.7 °C 10.3 °C 1007.3 hPa SSW 14.3 km/h 19.3 km/h 38% 0 mm 0.0 W/m2
Canyon Roadhouse, Fishriver Canyon, Namibia
Compliments of Weather Underground - 2 mb